Acton, Maine
Current Conditions -  °F | °C
As of 10:15 PM on Wednesday 22 Oct 2014 (Local Time) from KSFM Reporting Station
Overcast Overcast  
Wind Chill: 38°   Ceiling: 800
Heat Index: 46°   Visibility: 3mi
Dew Point: 41°   Wind: 24mph
Humidity: 81%   Direction: 30°NNE
Pressure: 29.96"   Gusts: 30mph
Location:  43.53°N, 70.91°W
Report Text: KSFM 230215Z AUTO 03021G26KT 3SM OVC008 08/05 A2996 RMK AO1 P0002
Loading
Personal Weather Stations






























Interactive Weather Map
Tropical Storm Tracking
New forecast layout! Learn more

10-Day Weather Forecast

Advertisements
Track Severe Weather on mobile